sensor_id;sensor_type;location;lat;lon;timestamp;P1;durP1;ratioP1;P2;durP2;ratioP2
8913;SDS011;4492;48.736;9.092;2022-09-09T00:04:36;2.20;;;0.70;;
8913;SDS011;4492;48.736;9.092;2022-09-09T00:09:49;2.27;;;1.47;;
8913;SDS011;4492;48.736;9.092;2022-09-09T00:15:19;2.40;;;1.00;;
8913;SDS011;4492;48.736;9.092;2022-09-09T00:18:03;5.40;;;1.40;;
8913;SDS011;4492;48.736;9.092;2022-09-09T00:20:37;4.10;;;1.20;;
8913;SDS011;4492;48.736;9.092;2022-09-09T00:25:51;4.70;;;1.17;;
8913;SDS011;4492;48.736;9.092;2022-09-09T00:28:23;4.63;;;1.10;;
8913;SDS011;4492;48.736;9.092;2022-09-09T00:30:51;3.33;;;1.17;;
8913;SDS011;4492;48.736;9.092;2022-09-09T00:33:19;4.00;;;1.57;;
8913;SDS011;4492;48.736;9.092;2022-09-09T00:35:49;1.60;;;1.10;;
8913;SDS011;4492;48.736;9.092;2022-09-09T00:38:28;4.90;;;1.20;;
8913;SDS011;4492;48.736;9.092;2022-09-09T00:43:32;4.10;;;1.40;;
8913;SDS011;4492;48.736;9.092;2022-09-09T00:46:14;3.47;;;1.30;;
8913;SDS011;4492;48.736;9.092;2022-09-09T01:11:20;2.77;;;1.07;;
8913;SDS011;4492;48.736;9.092;2022-09-09T01:13:49;3.27;;;0.90;;
8913;SDS011;4492;48.736;9.092;2022-09-09T01:16:24;4.33;;;0.73;;
8913;SDS011;4492;48.736;9.092;2022-09-09T01:18:51;2.23;;;1.10;;
8913;SDS011;4492;48.736;9.092;2022-09-09T01:21:22;3.50;;;0.87;;
8913;SDS011;4492;48.736;9.092;2022-09-09T01:24:31;4.80;;;1.33;;
8913;SDS011;4492;48.736;9.092;2022-09-09T01:27:14;4.03;;;0.90;;
8913;SDS011;4492;48.736;9.092;2022-09-09T01:29:42;2.20;;;1.10;;
8913;SDS011;4492;48.736;9.092;2022-09-09T01:35:14;2.67;;;1.20;;
8913;SDS011;4492;48.736;9.092;2022-09-09T01:38:00;3.23;;;1.30;;
8913;SDS011;4492;48.736;9.092;2022-09-09T01:40:26;3.50;;;1.17;;
8913;SDS011;4492;48.736;9.092;2022-09-09T01:42:52;1.00;;;0.90;;
8913;SDS011;4492;48.736;9.092;2022-09-09T01:45:21;3.93;;;1.33;;
8913;SDS011;4492;48.736;9.092;2022-09-09T01:47:48;2.73;;;1.50;;
8913;SDS011;4492;48.736;9.092;2022-09-09T01:50:15;2.03;;;1.10;;
8913;SDS011;4492;48.736;9.092;2022-09-09T01:52:41;2.03;;;1.07;;
8913;SDS011;4492;48.736;9.092;2022-09-09T01:55:09;4.23;;;1.33;;
8913;SDS011;4492;48.736;9.092;2022-09-09T02:00:14;3.17;;;0.80;;
8913;SDS011;4492;48.736;9.092;2022-09-09T02:05:10;0.77;;;0.47;;
8913;SDS011;4492;48.736;9.092;2022-09-09T02:08:00;3.63;;;0.90;;
8913;SDS011;4492;48.736;9.092;2022-09-09T02:10:50;3.40;;;0.90;;
8913;SDS011;4492;48.736;9.092;2022-09-09T02:13:19;2.10;;;1.07;;
8913;SDS011;4492;48.736;9.092;2022-09-09T02:15:49;1.20;;;0.90;;
8913;SDS011;4492;48.736;9.092;2022-09-09T02:18:30;4.23;;;1.10;;
8913;SDS011;4492;48.736;9.092;2022-09-09T02:21:02;1.60;;;0.83;;
8913;SDS011;4492;48.736;9.092;2022-09-09T02:23:28;4.40;;;0.90;;
8913;SDS011;4492;48.736;9.092;2022-09-09T02:25:55;1.80;;;1.10;;
8913;SDS011;4492;48.736;9.092;2022-09-09T02:28:23;2.33;;;1.20;;
8913;SDS011;4492;48.736;9.092;2022-09-09T02:30:53;1.70;;;0.90;;
8913;SDS011;4492;48.736;9.092;2022-09-09T02:33:21;2.33;;;0.90;;
8913;SDS011;4492;48.736;9.092;2022-09-09T02:35:50;2.27;;;0.90;;
8913;SDS011;4492;48.736;9.092;2022-09-09T02:38:17;2.30;;;1.20;;
8913;SDS011;4492;48.736;9.092;2022-09-09T02:40:44;2.73;;;0.90;;
8913;SDS011;4492;48.736;9.092;2022-09-09T02:43:10;5.50;;;1.33;;
8913;SDS011;4492;48.736;9.092;2022-09-09T02:45:41;2.30;;;0.80;;
8913;SDS011;4492;48.736;9.092;2022-09-09T02:49:15;1.07;;;0.70;;
8913;SDS011;4492;48.736;9.092;2022-09-09T02:56:22;2.77;;;0.60;;
8913;SDS011;4492;48.736;9.092;2022-09-09T02:58:53;1.00;;;0.50;;
8913;SDS011;4492;48.736;9.092;2022-09-09T03:01:19;2.93;;;1.00;;
8913;SDS011;4492;48.736;9.092;2022-09-09T03:03:45;1.53;;;0.70;;
8913;SDS011;4492;48.736;9.092;2022-09-09T03:06:11;1.70;;;0.57;;
8913;SDS011;4492;48.736;9.092;2022-09-09T03:08:37;2.20;;;0.77;;
8913;SDS011;4492;48.736;9.092;2022-09-09T03:11:02;2.20;;;0.70;;
8913;SDS011;4492;48.736;9.092;2022-09-09T03:13:28;1.97;;;0.80;;
8913;SDS011;4492;48.736;9.092;2022-09-09T03:15:54;2.47;;;0.67;;
8913;SDS011;4492;48.736;9.092;2022-09-09T03:18:20;3.37;;;1.03;;
8913;SDS011;4492;48.736;9.092;2022-09-09T03:20:46;1.53;;;0.70;;
8913;SDS011;4492;48.736;9.092;2022-09-09T03:23:13;1.53;;;0.80;;
8913;SDS011;4492;48.736;9.092;2022-09-09T03:25:39;2.20;;;0.73;;
8913;SDS011;4492;48.736;9.092;2022-09-09T03:28:12;3.87;;;0.90;;
8913;SDS011;4492;48.736;9.092;2022-09-09T03:30:37;1.73;;;0.70;;
8913;SDS011;4492;48.736;9.092;2022-09-09T03:33:03;1.53;;;0.90;;
8913;SDS011;4492;48.736;9.092;2022-09-09T03:35:29;2.10;;;0.80;;
8913;SDS011;4492;48.736;9.092;2022-09-09T03:37:54;1.10;;;0.43;;
8913;SDS011;4492;48.736;9.092;2022-09-09T03:40:20;0.53;;;0.50;;
8913;SDS011;4492;48.736;9.092;2022-09-09T03:42:46;1.77;;;0.57;;
8913;SDS011;4492;48.736;9.092;2022-09-09T03:45:13;0.87;;;0.80;;
8913;SDS011;4492;48.736;9.092;2022-09-09T03:47:38;1.87;;;0.60;;
8913;SDS011;4492;48.736;9.092;2022-09-09T03:50:05;1.70;;;0.70;;
8913;SDS011;4492;48.736;9.092;2022-09-09T03:52:35;2.43;;;0.83;;
8913;SDS011;4492;48.736;9.092;2022-09-09T03:55:01;4.13;;;0.73;;
8913;SDS011;4492;48.736;9.092;2022-09-09T03:57:27;1.33;;;0.80;;
8913;SDS011;4492;48.736;9.092;2022-09-09T03:59:52;1.07;;;0.67;;
8913;SDS011;4492;48.736;9.092;2022-09-09T04:02:18;2.50;;;0.83;;
8913;SDS011;4492;48.736;9.092;2022-09-09T04:04:43;1.57;;;0.80;;
8913;SDS011;4492;48.736;9.092;2022-09-09T04:07:09;0.93;;;0.40;;
8913;SDS011;4492;48.736;9.092;2022-09-09T04:09:34;4.33;;;0.80;;
8913;SDS011;4492;48.736;9.092;2022-09-09T04:12:00;1.10;;;0.70;;
8913;SDS011;4492;48.736;9.092;2022-09-09T04:14:26;1.33;;;0.73;;
8913;SDS011;4492;48.736;9.092;2022-09-09T04:16:53;2.90;;;1.00;;
8913;SDS011;4492;48.736;9.092;2022-09-09T04:19:20;1.07;;;0.50;;
8913;SDS011;4492;48.736;9.092;2022-09-09T04:21:46;3.77;;;0.70;;
8913;SDS011;4492;48.736;9.092;2022-09-09T04:24:14;1.23;;;0.90;;
8913;SDS011;4492;48.736;9.092;2022-09-09T04:26:41;1.80;;;0.80;;
8913;SDS011;4492;48.736;9.092;2022-09-09T04:29:07;2.87;;;0.80;;
8913;SDS011;4492;48.736;9.092;2022-09-09T04:31:33;2.83;;;0.90;;
8913;SDS011;4492;48.736;9.092;2022-09-09T04:33:58;3.83;;;0.97;;
8913;SDS011;4492;48.736;9.092;2022-09-09T04:36:29;1.60;;;0.97;;
8913;SDS011;4492;48.736;9.092;2022-09-09T04:38:56;1.50;;;0.70;;
8913;SDS011;4492;48.736;9.092;2022-09-09T04:41:22;2.53;;;1.00;;
8913;SDS011;4492;48.736;9.092;2022-09-09T04:43:48;3.20;;;1.03;;
8913;SDS011;4492;48.736;9.092;2022-09-09T04:46:14;2.00;;;0.80;;
8913;SDS011;4492;48.736;9.092;2022-09-09T04:48:42;3.57;;;0.97;;
8913;SDS011;4492;48.736;9.092;2022-09-09T04:51:09;4.50;;;1.40;;
8913;SDS011;4492;48.736;9.092;2022-09-09T04:53:37;2.27;;;0.80;;
8913;SDS011;4492;48.736;9.092;2022-09-09T04:56:09;2.20;;;1.00;;
8913;SDS011;4492;48.736;9.092;2022-09-09T04:58:42;3.17;;;0.90;;
8913;SDS011;4492;48.736;9.092;2022-09-09T05:01:09;6.03;;;1.07;;
8913;SDS011;4492;48.736;9.092;2022-09-09T05:03:37;1.70;;;1.00;;
8913;SDS011;4492;48.736;9.092;2022-09-09T05:06:09;5.30;;;0.87;;
8913;SDS011;4492;48.736;9.092;2022-09-09T05:08:37;2.90;;;1.00;;
8913;SDS011;4492;48.736;9.092;2022-09-09T05:11:12;1.60;;;0.97;;
8913;SDS011;4492;48.736;9.092;2022-09-09T05:13:51;3.77;;;1.13;;
8913;SDS011;4492;48.736;9.092;2022-09-09T05:16:18;2.67;;;0.93;;
8913;SDS011;4492;48.736;9.092;2022-09-09T05:18:44;2.03;;;1.07;;
8913;SDS011;4492;48.736;9.092;2022-09-09T05:21:11;2.93;;;1.20;;
8913;SDS011;4492;48.736;9.092;2022-09-09T05:23:37;2.80;;;1.10;;
8913;SDS011;4492;48.736;9.092;2022-09-09T05:26:03;4.50;;;1.10;;
8913;SDS011;4492;48.736;9.092;2022-09-09T05:28:30;2.03;;;1.20;;
8913;SDS011;4492;48.736;9.092;2022-09-09T05:30:59;1.50;;;0.80;;
8913;SDS011;4492;48.736;9.092;2022-09-09T05:33:36;2.73;;;1.00;;
8913;SDS011;4492;48.736;9.092;2022-09-09T05:36:12;2.23;;;0.93;;
8913;SDS011;4492;48.736;9.092;2022-09-09T05:38:40;5.37;;;1.30;;
8913;SDS011;4492;48.736;9.092;2022-09-09T05:41:06;1.40;;;1.10;;
8913;SDS011;4492;48.736;9.092;2022-09-09T05:43:32;2.13;;;1.10;;
8913;SDS011;4492;48.736;9.092;2022-09-09T05:46:14;2.50;;;1.13;;
8913;SDS011;4492;48.736;9.092;2022-09-09T05:48:42;2.37;;;1.27;;
8913;SDS011;4492;48.736;9.092;2022-09-09T05:51:11;3.33;;;1.47;;
8913;SDS011;4492;48.736;9.092;2022-09-09T05:53:40;2.90;;;1.30;;
8913;SDS011;4492;48.736;9.092;2022-09-09T05:56:16;2.07;;;0.97;;
8913;SDS011;4492;48.736;9.092;2022-09-09T05:58:44;2.60;;;1.60;;
8913;SDS011;4492;48.736;9.092;2022-09-09T06:01:18;2.43;;;1.00;;
8913;SDS011;4492;48.736;9.092;2022-09-09T06:03:55;1.03;;;0.80;;
8913;SDS011;4492;48.736;9.092;2022-09-09T06:06:22;2.23;;;0.90;;
8913;SDS011;4492;48.736;9.092;2022-09-09T06:08:51;3.83;;;1.30;;
8913;SDS011;4492;48.736;9.092;2022-09-09T06:11:19;2.80;;;1.07;;
8913;SDS011;4492;48.736;9.092;2022-09-09T06:13:48;1.67;;;0.87;;
8913;SDS011;4492;48.736;9.092;2022-09-09T06:16:18;2.03;;;1.10;;
8913;SDS011;4492;48.736;9.092;2022-09-09T06:18:45;2.37;;;0.93;;
8913;SDS011;4492;48.736;9.092;2022-09-09T06:21:15;2.57;;;1.03;;
8913;SDS011;4492;48.736;9.092;2022-09-09T06:23:45;3.83;;;1.97;;
8913;SDS011;4492;48.736;9.092;2022-09-09T06:26:15;3.70;;;1.10;;
8913;SDS011;4492;48.736;9.092;2022-09-09T06:28:49;2.00;;;1.30;;
8913;SDS011;4492;48.736;9.092;2022-09-09T06:31:18;6.40;;;1.50;;
8913;SDS011;4492;48.736;9.092;2022-09-09T06:33:49;3.13;;;1.30;;
8913;SDS011;4492;48.736;9.092;2022-09-09T06:36:17;3.03;;;1.20;;
8913;SDS011;4492;48.736;9.092;2022-09-09T06:38:44;2.70;;;1.27;;
8913;SDS011;4492;48.736;9.092;2022-09-09T06:41:11;2.87;;;1.37;;
8913;SDS011;4492;48.736;9.092;2022-09-09T06:43:39;2.17;;;1.10;;
8913;SDS011;4492;48.736;9.092;2022-09-09T06:46:06;2.77;;;1.20;;
8913;SDS011;4492;48.736;9.092;2022-09-09T06:48:34;2.63;;;1.40;;
8913;SDS011;4492;48.736;9.092;2022-09-09T06:51:02;3.40;;;1.10;;
8913;SDS011;4492;48.736;9.092;2022-09-09T06:53:29;2.03;;;1.30;;
8913;SDS011;4492;48.736;9.092;2022-09-09T06:55:58;2.87;;;1.20;;
8913;SDS011;4492;48.736;9.092;2022-09-09T06:58:42;2.30;;;0.90;;
8913;SDS011;4492;48.736;9.092;2022-09-09T07:01:15;2.93;;;1.10;;
8913;SDS011;4492;48.736;9.092;2022-09-09T07:03:42;1.30;;;1.00;;
8913;SDS011;4492;48.736;9.092;2022-09-09T07:06:14;3.03;;;1.00;;
8913;SDS011;4492;48.736;9.092;2022-09-09T07:08:48;2.90;;;0.80;;
8913;SDS011;4492;48.736;9.092;2022-09-09T07:11:19;6.13;;;1.00;;
8913;SDS011;4492;48.736;9.092;2022-09-09T07:13:46;2.07;;;1.10;;
8913;SDS011;4492;48.736;9.092;2022-09-09T07:16:13;3.40;;;1.77;;
8913;SDS011;4492;48.736;9.092;2022-09-09T07:18:43;2.97;;;1.20;;
8913;SDS011;4492;48.736;9.092;2022-09-09T07:21:13;4.53;;;1.10;;
8913;SDS011;4492;48.736;9.092;2022-09-09T07:23:39;2.10;;;1.00;;
8913;SDS011;4492;48.736;9.092;2022-09-09T07:26:10;10.83;;;1.40;;
8913;SDS011;4492;48.736;9.092;2022-09-09T07:28:38;2.30;;;1.10;;
8913;SDS011;4492;48.736;9.092;2022-09-09T07:31:05;2.57;;;1.20;;
8913;SDS011;4492;48.736;9.092;2022-09-09T07:33:32;1.00;;;0.83;;
8913;SDS011;4492;48.736;9.092;2022-09-09T07:36:04;3.50;;;0.90;;
8913;SDS011;4492;48.736;9.092;2022-09-09T07:38:32;4.50;;;1.10;;
8913;SDS011;4492;48.736;9.092;2022-09-09T07:41:09;2.70;;;0.80;;
8913;SDS011;4492;48.736;9.092;2022-09-09T07:43:38;4.43;;;1.43;;
8913;SDS011;4492;48.736;9.092;2022-09-09T07:46:09;4.43;;;1.20;;
8913;SDS011;4492;48.736;9.092;2022-09-09T07:48:36;2.47;;;1.40;;
8913;SDS011;4492;48.736;9.092;2022-09-09T07:51:07;2.60;;;1.00;;
8913;SDS011;4492;48.736;9.092;2022-09-09T07:53:36;1.17;;;0.80;;
8913;SDS011;4492;48.736;9.092;2022-09-09T07:56:03;2.43;;;1.20;;
8913;SDS011;4492;48.736;9.092;2022-09-09T07:58:30;2.03;;;1.00;;
8913;SDS011;4492;48.736;9.092;2022-09-09T08:00:55;3.80;;;1.00;;
8913;SDS011;4492;48.736;9.092;2022-09-09T08:03:22;4.23;;;1.03;;
8913;SDS011;4492;48.736;9.092;2022-09-09T08:05:48;7.70;;;1.40;;
8913;SDS011;4492;48.736;9.092;2022-09-09T08:08:14;6.10;;;1.40;;
8913;SDS011;4492;48.736;9.092;2022-09-09T08:10:41;2.10;;;0.97;;
8913;SDS011;4492;48.736;9.092;2022-09-09T08:13:08;2.97;;;1.00;;
8913;SDS011;4492;48.736;9.092;2022-09-09T08:15:33;2.07;;;1.10;;
8913;SDS011;4492;48.736;9.092;2022-09-09T08:17:59;3.00;;;1.10;;
8913;SDS011;4492;48.736;9.092;2022-09-09T08:20:24;1.40;;;0.80;;
8913;SDS011;4492;48.736;9.092;2022-09-09T08:22:50;1.87;;;0.90;;
8913;SDS011;4492;48.736;9.092;2022-09-09T08:25:15;3.67;;;1.10;;
8913;SDS011;4492;48.736;9.092;2022-09-09T08:27:41;2.37;;;1.20;;
8913;SDS011;4492;48.736;9.092;2022-09-09T08:30:06;4.87;;;1.40;;
8913;SDS011;4492;48.736;9.092;2022-09-09T08:32:32;3.77;;;1.20;;
8913;SDS011;4492;48.736;9.092;2022-09-09T08:35:00;2.37;;;1.03;;
8913;SDS011;4492;48.736;9.092;2022-09-09T08:37:25;1.90;;;0.90;;
8913;SDS011;4492;48.736;9.092;2022-09-09T08:39:51;1.97;;;1.00;;
8913;SDS011;4492;48.736;9.092;2022-09-09T08:47:50;1.50;;;0.90;;
8913;SDS011;4492;48.736;9.092;2022-09-09T08:50:36;3.07;;;1.20;;
8913;SDS011;4492;48.736;9.092;2022-09-09T08:53:11;5.50;;;1.20;;
8913;SDS011;4492;48.736;9.092;2022-09-09T08:55:45;2.87;;;0.80;;
8913;SDS011;4492;48.736;9.092;2022-09-09T08:58:21;4.53;;;1.10;;
8913;SDS011;4492;48.736;9.092;2022-09-09T09:06:26;1.93;;;1.00;;
8913;SDS011;4492;48.736;9.092;2022-09-09T09:11:39;6.03;;;1.10;;
8913;SDS011;4492;48.736;9.092;2022-09-09T09:16:58;2.70;;;1.00;;
8913;SDS011;4492;48.736;9.092;2022-09-09T09:19:27;3.50;;;1.03;;
8913;SDS011;4492;48.736;9.092;2022-09-09T09:22:06;3.43;;;1.30;;
8913;SDS011;4492;48.736;9.092;2022-09-09T09:24:54;4.83;;;0.80;;
8913;SDS011;4492;48.736;9.092;2022-09-09T09:30:21;1.00;;;0.50;;
8913;SDS011;4492;48.736;9.092;2022-09-09T09:35:44;3.47;;;0.80;;
8913;SDS011;4492;48.736;9.092;2022-09-09T09:38:31;1.87;;;0.80;;
8913;SDS011;4492;48.736;9.092;2022-09-09T09:40:56;0.90;;;0.50;;
8913;SDS011;4492;48.736;9.092;2022-09-09T09:43:27;1.57;;;0.60;;
8913;SDS011;4492;48.736;9.092;2022-09-09T09:45:54;1.27;;;0.60;;
8913;SDS011;4492;48.736;9.092;2022-09-09T09:48:22;1.83;;;0.70;;
8913;SDS011;4492;48.736;9.092;2022-09-09T09:50:49;4.23;;;1.00;;
8913;SDS011;4492;48.736;9.092;2022-09-09T09:53:16;2.27;;;0.70;;
8913;SDS011;4492;48.736;9.092;2022-09-09T09:56:00;1.90;;;0.63;;
8913;SDS011;4492;48.736;9.092;2022-09-09T09:58:30;2.70;;;0.90;;
8913;SDS011;4492;48.736;9.092;2022-09-09T10:00:59;2.47;;;0.80;;
8913;SDS011;4492;48.736;9.092;2022-09-09T10:03:29;1.13;;;0.73;;
8913;SDS011;4492;48.736;9.092;2022-09-09T10:05:56;3.17;;;0.77;;
8913;SDS011;4492;48.736;9.092;2022-09-09T10:08:26;3.00;;;1.03;;
8913;SDS011;4492;48.736;9.092;2022-09-09T10:13:29;1.70;;;1.00;;
8913;SDS011;4492;48.736;9.092;2022-09-09T10:16:25;2.03;;;0.83;;
8913;SDS011;4492;48.736;9.092;2022-09-09T10:19:01;2.80;;;1.00;;
8913;SDS011;4492;48.736;9.092;2022-09-09T10:27:10;2.27;;;0.93;;
8913;SDS011;4492;48.736;9.092;2022-09-09T10:51:53;2.90;;;1.00;;
8913;SDS011;4492;48.736;9.092;2022-09-09T10:54:32;3.97;;;1.23;;
8913;SDS011;4492;48.736;9.092;2022-09-09T10:59:48;2.57;;;1.13;;
8913;SDS011;4492;48.736;9.092;2022-09-09T11:02:27;2.97;;;1.00;;
8913;SDS011;4492;48.736;9.092;2022-09-09T11:07:47;2.47;;;0.90;;
8913;SDS011;4492;48.736;9.092;2022-09-09T11:10:20;1.67;;;0.83;;
8913;SDS011;4492;48.736;9.092;2022-09-09T11:13:01;3.90;;;1.10;;
8913;SDS011;4492;48.736;9.092;2022-09-09T11:15:41;1.50;;;0.70;;
8913;SDS011;4492;48.736;9.092;2022-09-09T11:18:14;2.17;;;0.80;;
8913;SDS011;4492;48.736;9.092;2022-09-09T11:20:44;1.90;;;1.60;;
8913;SDS011;4492;48.736;9.092;2022-09-09T11:23:17;2.43;;;1.30;;
8913;SDS011;4492;48.736;9.092;2022-09-09T11:26:14;2.67;;;0.70;;
8913;SDS011;4492;48.736;9.092;2022-09-09T11:31:19;2.07;;;0.80;;
8913;SDS011;4492;48.736;9.092;2022-09-09T11:39:23;3.17;;;1.10;;
8913;SDS011;4492;48.736;9.092;2022-09-09T11:42:05;1.47;;;0.80;;
8913;SDS011;4492;48.736;9.092;2022-09-09T11:44:37;0.77;;;0.50;;
8913;SDS011;4492;48.736;9.092;2022-09-09T11:47:02;1.80;;;0.40;;
8913;SDS011;4492;48.736;9.092;2022-09-09T11:49:40;0.83;;;0.47;;
8913;SDS011;4492;48.736;9.092;2022-09-09T11:52:18;6.90;;;1.30;;
8913;SDS011;4492;48.736;9.092;2022-09-09T11:55:10;0.90;;;0.80;;
8913;SDS011;4492;48.736;9.092;2022-09-09T11:58:14;1.73;;;0.70;;
8913;SDS011;4492;48.736;9.092;2022-09-09T12:06:41;1.80;;;1.00;;
8913;SDS011;4492;48.736;9.092;2022-09-09T12:08:58;1.27;;;0.97;;
8913;SDS011;4492;48.736;9.092;2022-09-09T12:11:38;3.47;;;0.70;;
8913;SDS011;4492;48.736;9.092;2022-09-09T12:14:04;1.13;;;0.73;;
8913;SDS011;4492;48.736;9.092;2022-09-09T12:16:33;1.87;;;0.47;;
8913;SDS011;4492;48.736;9.092;2022-09-09T12:19:13;0.70;;;0.60;;
8913;SDS011;4492;48.736;9.092;2022-09-09T12:21:45;1.10;;;0.40;;
8913;SDS011;4492;48.736;9.092;2022-09-09T12:24:25;0.67;;;0.40;;
8913;SDS011;4492;48.736;9.092;2022-09-09T12:32:20;1.33;;;0.43;;
8913;SDS011;4492;48.736;9.092;2022-09-09T12:34:52;0.87;;;0.30;;
8913;SDS011;4492;48.736;9.092;2022-09-09T12:40:27;3.17;;;0.90;;
8913;SDS011;4492;48.736;9.092;2022-09-09T12:42:54;3.00;;;0.80;;
8913;SDS011;4492;48.736;9.092;2022-09-09T12:45:22;2.73;;;0.70;;
8913;SDS011;4492;48.736;9.092;2022-09-09T12:47:54;0.80;;;0.40;;
8913;SDS011;4492;48.736;9.092;2022-09-09T12:50:22;2.20;;;0.70;;
8913;SDS011;4492;48.736;9.092;2022-09-09T12:52:51;0.40;;;0.37;;
8913;SDS011;4492;48.736;9.092;2022-09-09T12:55:30;1.07;;;0.73;;
8913;SDS011;4492;48.736;9.092;2022-09-09T12:57:58;1.80;;;0.83;;
8913;SDS011;4492;48.736;9.092;2022-09-09T13:00:29;2.13;;;0.50;;
8913;SDS011;4492;48.736;9.092;2022-09-09T13:02:56;2.80;;;0.50;;
8913;SDS011;4492;48.736;9.092;2022-09-09T13:05:37;1.43;;;0.50;;
8913;SDS011;4492;48.736;9.092;2022-09-09T13:08:08;1.40;;;0.90;;
8913;SDS011;4492;48.736;9.092;2022-09-09T13:10:36;2.97;;;0.70;;
8913;SDS011;4492;48.736;9.092;2022-09-09T13:13:15;2.30;;;0.80;;
8913;SDS011;4492;48.736;9.092;2022-09-09T13:15:53;1.03;;;0.60;;
8913;SDS011;4492;48.736;9.092;2022-09-09T13:18:24;2.10;;;0.50;;
8913;SDS011;4492;48.736;9.092;2022-09-09T13:20:53;1.27;;;0.50;;
8913;SDS011;4492;48.736;9.092;2022-09-09T13:23:21;1.47;;;0.60;;
8913;SDS011;4492;48.736;9.092;2022-09-09T13:25:57;1.57;;;0.60;;
8913;SDS011;4492;48.736;9.092;2022-09-09T13:28:25;0.73;;;0.40;;
8913;SDS011;4492;48.736;9.092;2022-09-09T13:31:06;0.87;;;0.57;;
8913;SDS011;4492;48.736;9.092;2022-09-09T13:33:45;1.80;;;0.50;;
8913;SDS011;4492;48.736;9.092;2022-09-09T13:36:11;1.63;;;0.63;;
8913;SDS011;4492;48.736;9.092;2022-09-09T13:38:54;1.20;;;0.60;;
8913;SDS011;4492;48.736;9.092;2022-09-09T13:41:22;2.07;;;0.40;;
8913;SDS011;4492;48.736;9.092;2022-09-09T13:43:49;1.07;;;0.60;;
8913;SDS011;4492;48.736;9.092;2022-09-09T13:51:42;1.20;;;0.60;;
8913;SDS011;4492;48.736;9.092;2022-09-09T13:54:13;1.77;;;0.70;;
8913;SDS011;4492;48.736;9.092;2022-09-09T13:56:41;1.50;;;0.40;;
8913;SDS011;4492;48.736;9.092;2022-09-09T13:59:11;2.20;;;0.53;;
8913;SDS011;4492;48.736;9.092;2022-09-09T14:01:38;2.13;;;0.60;;
8913;SDS011;4492;48.736;9.092;2022-09-09T14:04:04;1.70;;;0.63;;
8913;SDS011;4492;48.736;9.092;2022-09-09T14:06:33;1.73;;;0.53;;
8913;SDS011;4492;48.736;9.092;2022-09-09T14:09:02;3.27;;;0.80;;
8913;SDS011;4492;48.736;9.092;2022-09-09T14:11:27;4.13;;;0.67;;
8913;SDS011;4492;48.736;9.092;2022-09-09T14:13:53;1.50;;;0.50;;
8913;SDS011;4492;48.736;9.092;2022-09-09T14:16:19;1.20;;;0.60;;
8913;SDS011;4492;48.736;9.092;2022-09-09T14:18:46;1.60;;;0.77;;
8913;SDS011;4492;48.736;9.092;2022-09-09T14:21:12;4.10;;;0.50;;
8913;SDS011;4492;48.736;9.092;2022-09-09T14:23:38;1.80;;;0.60;;
8913;SDS011;4492;48.736;9.092;2022-09-09T14:26:04;1.93;;;0.87;;
8913;SDS011;4492;48.736;9.092;2022-09-09T14:28:31;2.97;;;0.67;;
8913;SDS011;4492;48.736;9.092;2022-09-09T14:30:59;1.90;;;0.40;;
8913;SDS011;4492;48.736;9.092;2022-09-09T14:33:25;2.40;;;0.70;;
8913;SDS011;4492;48.736;9.092;2022-09-09T14:36:01;3.20;;;0.50;;
8913;SDS011;4492;48.736;9.092;2022-09-09T14:38:32;1.20;;;0.30;;
8913;SDS011;4492;48.736;9.092;2022-09-09T14:40:59;2.10;;;0.60;;
8913;SDS011;4492;48.736;9.092;2022-09-09T14:43:28;0.27;;;0.23;;
8913;SDS011;4492;48.736;9.092;2022-09-09T14:45:55;1.97;;;0.60;;
8913;SDS011;4492;48.736;9.092;2022-09-09T14:48:20;2.30;;;0.77;;
8913;SDS011;4492;48.736;9.092;2022-09-09T14:50:46;3.13;;;0.80;;
8913;SDS011;4492;48.736;9.092;2022-09-09T14:53:12;0.50;;;0.33;;
8913;SDS011;4492;48.736;9.092;2022-09-09T14:55:37;0.73;;;0.50;;
8913;SDS011;4492;48.736;9.092;2022-09-09T14:58:03;1.40;;;0.47;;
8913;SDS011;4492;48.736;9.092;2022-09-09T15:00:31;1.33;;;0.47;;
8913;SDS011;4492;48.736;9.092;2022-09-09T15:02:56;1.00;;;0.50;;
8913;SDS011;4492;48.736;9.092;2022-09-09T15:05:22;0.60;;;0.50;;
8913;SDS011;4492;48.736;9.092;2022-09-09T15:07:49;1.03;;;0.33;;
8913;SDS011;4492;48.736;9.092;2022-09-09T15:10:14;0.63;;;0.40;;
8913;SDS011;4492;48.736;9.092;2022-09-09T15:12:42;2.67;;;0.50;;
8913;SDS011;4492;48.736;9.092;2022-09-09T15:15:08;0.70;;;0.50;;
8913;SDS011;4492;48.736;9.092;2022-09-09T15:17:34;1.57;;;0.60;;
8913;SDS011;4492;48.736;9.092;2022-09-09T15:20:01;2.37;;;0.60;;
8913;SDS011;4492;48.736;9.092;2022-09-09T15:22:28;2.07;;;0.63;;
8913;SDS011;4492;48.736;9.092;2022-09-09T15:24:53;0.70;;;0.50;;
8913;SDS011;4492;48.736;9.092;2022-09-09T15:27:20;2.50;;;0.90;;
8913;SDS011;4492;48.736;9.092;2022-09-09T15:29:45;2.93;;;0.50;;
8913;SDS011;4492;48.736;9.092;2022-09-09T15:32:11;1.77;;;0.53;;
8913;SDS011;4492;48.736;9.092;2022-09-09T15:34:37;3.53;;;0.90;;
8913;SDS011;4492;48.736;9.092;2022-09-09T15:37:02;1.67;;;0.50;;
8913;SDS011;4492;48.736;9.092;2022-09-09T15:39:28;2.40;;;0.70;;
8913;SDS011;4492;48.736;9.092;2022-09-09T15:41:54;1.60;;;0.70;;
8913;SDS011;4492;48.736;9.092;2022-09-09T15:44:19;1.03;;;0.60;;
8913;SDS011;4492;48.736;9.092;2022-09-09T15:46:46;1.60;;;0.50;;
8913;SDS011;4492;48.736;9.092;2022-09-09T15:49:18;1.63;;;0.67;;
8913;SDS011;4492;48.736;9.092;2022-09-09T15:51:47;1.60;;;0.77;;
8913;SDS011;4492;48.736;9.092;2022-09-09T15:54:17;2.63;;;1.10;;
8913;SDS011;4492;48.736;9.092;2022-09-09T15:56:45;1.63;;;0.57;;
8913;SDS011;4492;48.736;9.092;2022-09-09T15:59:15;2.10;;;0.70;;
8913;SDS011;4492;48.736;9.092;2022-09-09T16:01:40;2.13;;;0.60;;
8913;SDS011;4492;48.736;9.092;2022-09-09T16:04:07;1.50;;;1.07;;
8913;SDS011;4492;48.736;9.092;2022-09-09T16:06:33;1.63;;;0.80;;
8913;SDS011;4492;48.736;9.092;2022-09-09T16:08:59;1.50;;;0.83;;
8913;SDS011;4492;48.736;9.092;2022-09-09T16:11:27;2.23;;;0.73;;
8913;SDS011;4492;48.736;9.092;2022-09-09T16:13:56;1.77;;;0.80;;
8913;SDS011;4492;48.736;9.092;2022-09-09T16:16:24;1.57;;;0.80;;
8913;SDS011;4492;48.736;9.092;2022-09-09T16:18:53;1.63;;;0.70;;
8913;SDS011;4492;48.736;9.092;2022-09-09T16:23:46;1.00;;;0.43;;
8913;SDS011;4492;48.736;9.092;2022-09-09T16:26:14;0.50;;;0.30;;
8913;SDS011;4492;48.736;9.092;2022-09-09T16:28:40;3.93;;;0.50;;
8913;SDS011;4492;48.736;9.092;2022-09-09T16:31:06;0.67;;;0.37;;
8913;SDS011;4492;48.736;9.092;2022-09-09T16:33:34;1.87;;;0.70;;
8913;SDS011;4492;48.736;9.092;2022-09-09T16:36:07;0.83;;;0.43;;
8913;SDS011;4492;48.736;9.092;2022-09-09T16:38:35;1.00;;;0.50;;
8913;SDS011;4492;48.736;9.092;2022-09-09T16:41:02;1.17;;;0.50;;
8913;SDS011;4492;48.736;9.092;2022-09-09T16:43:30;2.47;;;0.60;;
8913;SDS011;4492;48.736;9.092;2022-09-09T16:45:56;0.57;;;0.40;;
8913;SDS011;4492;48.736;9.092;2022-09-09T16:48:22;0.70;;;0.30;;
8913;SDS011;4492;48.736;9.092;2022-09-09T16:50:48;0.60;;;0.30;;
8913;SDS011;4492;48.736;9.092;2022-09-09T16:53:14;1.07;;;0.20;;
8913;SDS011;4492;48.736;9.092;2022-09-09T16:55:40;0.70;;;0.27;;
8913;SDS011;4492;48.736;9.092;2022-09-09T16:58:06;1.20;;;0.30;;
8913;SDS011;4492;48.736;9.092;2022-09-09T17:00:33;1.40;;;0.53;;
8913;SDS011;4492;48.736;9.092;2022-09-09T17:02:59;0.60;;;0.13;;
8913;SDS011;4492;48.736;9.092;2022-09-09T17:05:25;0.90;;;0.20;;
8913;SDS011;4492;48.736;9.092;2022-09-09T17:07:50;0.30;;;0.20;;
8913;SDS011;4492;48.736;9.092;2022-09-09T17:10:16;0.53;;;0.40;;
8913;SDS011;4492;48.736;9.092;2022-09-09T17:12:42;0.93;;;0.23;;
8913;SDS011;4492;48.736;9.092;2022-09-09T17:15:08;0.53;;;0.17;;
8913;SDS011;4492;48.736;9.092;2022-09-09T17:17:34;0.23;;;0.23;;
8913;SDS011;4492;48.736;9.092;2022-09-09T17:20:00;0.10;;;0.10;;
8913;SDS011;4492;48.736;9.092;2022-09-09T17:22:27;0.30;;;0.20;;
8913;SDS011;4492;48.736;9.092;2022-09-09T17:24:53;0.57;;;0.20;;
8913;SDS011;4492;48.736;9.092;2022-09-09T17:27:19;1.13;;;0.20;;
8913;SDS011;4492;48.736;9.092;2022-09-09T17:29:45;0.87;;;0.30;;
8913;SDS011;4492;48.736;9.092;2022-09-09T17:32:11;0.50;;;0.30;;
8913;SDS011;4492;48.736;9.092;2022-09-09T17:34:37;1.87;;;0.53;;
8913;SDS011;4492;48.736;9.092;2022-09-09T17:37:03;2.20;;;0.40;;
8913;SDS011;4492;48.736;9.092;2022-09-09T17:39:30;0.73;;;0.20;;
8913;SDS011;4492;48.736;9.092;2022-09-09T17:41:56;2.73;;;0.40;;
8913;SDS011;4492;48.736;9.092;2022-09-09T17:44:22;0.83;;;0.30;;
8913;SDS011;4492;48.736;9.092;2022-09-09T17:46:48;0.40;;;0.30;;
8913;SDS011;4492;48.736;9.092;2022-09-09T17:49:15;1.07;;;0.33;;